Time;durP1;ratioP1;P1;durP2;ratioP2;P2;SDS_P1;SDS_P2;PMS_P1;PMS_P2;Temp;Humidity;BMP_temperature;BMP_pressure;BME280_temperature;BME280_humidity;BME280_pressure;Samples;Min_cycle;Max_cycle;Signal;HPM_P1;HPM_P2
2023/05/13 00:00:41;;;;;;;10.30;4.10;;;;;;;11.91;49.39;101158.52;217568;1283;138483;-88
2023/05/13 00:05:42;;;;;;;14.80;4.60;;;;;;;11.92;49.31;101161.54;218067;1283;139331;-87
2023/05/13 00:10:42;;;;;;;13.60;5.00;;;;;;;11.95;49.22;101164.42;217703;1282;138058;-87
2023/05/13 00:15:42;;;;;;;12.60;4.20;;;;;;;12.01;49.16;101163.90;217965;1286;137893;-88
2023/05/13 00:20:43;;;;;;;9.40;4.70;;;;;;;12.08;48.89;101159.05;217515;1282;138636;-88
2023/05/13 00:25:43;;;;;;;12.20;4.50;;;;;;;12.15;48.70;101159.73;218069;1282;138262;-87
2023/05/13 00:30:44;;;;;;;10.00;4.30;;;;;;;12.16;48.97;101154.14;217598;1284;139153;-87
2023/05/13 00:35:45;;;;;;;13.00;4.80;;;;;;;12.12;48.69;101159.81;218100;1283;138021;-88
2023/05/13 00:40:46;;;;;;;11.60;5.00;;;;;;;12.13;48.75;101164.41;217565;1282;139193;-84
2023/05/13 00:45:46;;;;;;;12.70;4.60;;;;;;;12.09;48.98;101162.77;217986;1282;138858;-88
2023/05/13 00:50:48;;;;;;;10.10;4.40;;;;;;;12.03;48.95;101160.84;217523;1283;139074;-86
2023/05/13 00:55:48;;;;;;;11.60;4.70;;;;;;;11.97;49.30;101161.59;217953;1282;139028;-86
2023/05/13 01:01:27;;;;;;;8.80;4.10;;;;;;;11.90;49.47;101165.11;217564;1282;140276;-87
2023/05/13 01:07:10;;;;;;;9.90;4.30;;;;;;;11.78;49.80;101160.34;217683;1286;137975;-85
2023/05/13 01:12:18;;;;;;;9.90;5.50;;;;;;;11.67;50.34;101160.83;217503;1282;138457;-87
2023/05/13 01:17:28;;;;;;;10.70;4.70;;;;;;;11.57;50.16;101167.96;217989;1282;109562;-88
2023/05/13 01:22:28;;;;;;;11.30;4.30;;;;;;;11.49;50.22;101171.58;217243;1282;138639;-86
2023/05/13 01:27:28;;;;;;;9.50;4.30;;;;;;;11.43;50.61;101173.28;217886;1282;138271;-88
2023/05/13 01:32:29;;;;;;;10.80;4.70;;;;;;;11.43;50.23;101177.54;217515;1282;138446;-86
2023/05/13 01:37:30;;;;;;;10.50;5.30;;;;;;;11.47;50.19;101178.95;217961;1282;138315;-86
2023/05/13 01:42:33;;;;;;;13.10;5.30;;;;;;;11.51;50.24;101176.81;217455;1286;138620;-87
2023/05/13 01:47:34;;;;;;;9.90;5.00;;;;;;;11.49;50.29;101182.45;217977;1282;140429;-86
2023/05/13 01:52:34;;;;;;;9.20;4.80;;;;;;;11.44;50.46;101182.44;217615;1286;138928;-86
2023/05/13 01:57:35;;;;;;;9.60;4.70;;;;;;;11.37;50.85;101183.23;217998;1283;137774;-88
2023/05/13 02:02:35;;;;;;;9.80;4.90;;;;;;;11.28;51.60;101188.24;217468;1283;139050;-86
2023/05/13 02:07:35;;;;;;;12.00;5.20;;;;;;;11.17;51.72;101185.81;217985;1282;138011;-87
2023/05/13 02:12:36;;;;;;;12.50;4.50;;;;;;;11.05;51.89;101189.19;217512;1282;139022;-87
2023/05/13 02:17:36;;;;;;;10.40;4.70;;;;;;;10.95;52.21;101189.99;218073;1283;138666;-85
2023/05/13 02:22:36;;;;;;;11.00;4.70;;;;;;;10.89;52.53;101191.60;217370;1282;137998;-88
2023/05/13 02:27:37;;;;;;;13.40;6.80;;;;;;;10.85;52.58;101194.02;218042;1282;138079;-90
2023/05/13 02:32:41;;;;;;;11.90;5.60;;;;;;;10.82;52.74;101197.97;217432;1286;139188;-88
2023/05/13 02:37:42;;;;;;;12.10;4.90;;;;;;;10.78;52.93;101194.65;217886;1283;138496;-89
2023/05/13 02:42:42;;;;;;;13.50;5.90;;;;;;;10.77;52.80;101195.65;217392;1282;139059;-86
2023/05/13 02:47:43;;;;;;;11.70;4.80;;;;;;;10.79;52.60;101194.67;218067;1283;138436;-88
2023/05/13 02:52:43;;;;;;;12.00;4.90;;;;;;;10.75;52.94;101192.93;217618;1282;138955;-88
2023/05/13 02:57:43;;;;;;;10.10;5.30;;;;;;;10.68;53.04;101197.02;218028;1282;138767;-86
2023/05/13 03:02:44;;;;;;;13.00;6.00;;;;;;;10.60;53.60;101201.17;217456;1282;138305;-86
2023/05/13 03:07:44;;;;;;;11.70;5.50;;;;;;;10.55;53.68;101200.56;218025;1282;139244;-86
2023/05/13 03:12:44;;;;;;;11.00;5.60;;;;;;;10.49;54.03;101204.69;217569;1282;138428;-86
2023/05/13 03:17:45;;;;;;;13.00;5.50;;;;;;;10.42;54.52;101204.74;218045;1282;138278;-85
2023/05/13 03:22:45;;;;;;;10.90;5.40;;;;;;;10.34;54.80;101205.18;217626;1282;138716;-85
2023/05/13 03:27:46;;;;;;;12.90;6.40;;;;;;;10.28;55.42;101205.10;217993;1286;138030;-85
2023/05/13 03:32:46;;;;;;;14.30;6.10;;;;;;;10.23;55.71;101208.11;217538;1286;139311;-86
2023/05/13 03:37:47;;;;;;;12.10;5.80;;;;;;;10.18;55.91;101208.16;218063;1286;139445;-85
2023/05/13 03:42:47;;;;;;;12.30;6.80;;;;;;;10.14;56.41;101209.87;217531;1282;138931;-85
2023/05/13 03:47:48;;;;;;;13.00;5.90;;;;;;;10.14;56.34;101213.70;218087;1282;138038;-85
2023/05/13 03:52:49;;;;;;;10.40;5.30;;;;;;;10.13;56.86;101220.05;217676;1282;138319;-85
2023/05/13 03:57:49;;;;;;;13.50;6.20;;;;;;;10.13;56.85;101226.03;218108;1282;137864;-86
2023/05/13 04:02:49;;;;;;;11.90;6.00;;;;;;;10.13;57.53;101226.73;217540;1282;138483;-85
2023/05/13 04:07:50;;;;;;;14.60;6.20;;;;;;;10.14;57.55;101232.41;217819;1282;138020;-84
2023/05/13 04:12:50;;;;;;;11.30;6.10;;;;;;;10.14;57.67;101232.98;217450;1282;139131;-86
2023/05/13 04:17:51;;;;;;;11.40;6.10;;;;;;;10.18;57.90;101240.29;218034;1282;138147;-85
2023/05/13 04:22:51;;;;;;;13.40;6.50;;;;;;;10.21;58.20;101240.92;217463;1282;139063;-86
2023/05/13 04:27:52;;;;;;;13.10;7.10;;;;;;;10.28;58.18;101237.39;218064;1282;138064;-85
2023/05/13 04:32:52;;;;;;;16.40;6.80;;;;;;;10.34;58.68;101241.98;217538;1283;138933;-85
2023/05/13 04:37:52;;;;;;;12.00;6.20;;;;;;;10.43;58.52;101244.88;218112;1286;138144;-86
2023/05/13 04:42:53;;;;;;;12.40;6.40;;;;;;;10.53;58.37;101244.55;217502;1282;139136;-86
2023/05/13 04:47:54;;;;;;;11.40;6.00;;;;;;;10.64;58.21;101244.83;218038;1282;138057;-84
2023/05/13 04:52:55;;;;;;;10.70;5.90;;;;;;;10.79;58.43;101246.05;217377;1282;137840;-86
2023/05/13 04:57:55;;;;;;;11.00;5.80;;;;;;;10.91;58.38;101248.44;218068;1283;137943;-85
2023/05/13 05:02:56;;;;;;;11.00;6.10;;;;;;;11.04;58.37;101256.52;217451;1282;138459;-84
2023/05/13 05:07:57;;;;;;;12.00;6.20;;;;;;;11.17;59.03;101256.52;217940;1282;138151;-86
2023/05/13 05:12:57;;;;;;;11.50;5.30;;;;;;;11.32;59.04;101260.08;217361;1282;139007;-87
2023/05/13 05:17:57;;;;;;;13.60;5.50;;;;;;;11.49;59.53;101256.70;218105;1282;138385;-87
2023/05/13 05:22:58;;;;;;;13.80;5.60;;;;;;;11.68;59.39;101254.99;217675;1282;138534;-87
2023/05/13 05:27:59;;;;;;;9.80;4.70;;;;;;;12.05;57.85;101255.17;218046;1283;137973;-89
2023/05/13 05:33:00;;;;;;;12.50;4.80;;;;;;;12.65;56.60;101254.84;217492;1282;138354;-87
2023/05/13 05:38:00;;;;;;;12.10;4.30;;;;;;;13.31;54.76;101255.84;218122;1282;138258;-85
2023/05/13 05:43:01;;;;;;;10.40;4.70;;;;;;;14.07;53.64;101255.33;217607;1282;138744;-85
2023/05/13 05:48:05;;;;;;;9.90;5.00;;;;;;;14.85;50.98;101258.31;218030;1282;138183;-88
2023/05/13 05:53:05;;;;;;;12.40;5.30;;;;;;;15.52;50.86;101258.23;217268;1283;138855;-86
2023/05/13 05:58:09;;;;;;;11.80;5.40;;;;;;;16.23;50.22;101255.73;218016;1282;137837;-85
2023/05/13 06:03:09;;;;;;;8.80;4.00;;;;;;;17.00;49.48;101258.44;217506;1282;138595;-88
2023/05/13 06:08:09;;;;;;;7.60;4.30;;;;;;;17.72;47.32;101261.49;217889;1287;137931;-88
2023/05/13 06:13:10;;;;;;;12.60;4.90;;;;;;;18.25;45.22;101260.40;217315;1282;138139;-86
2023/05/13 06:18:10;;;;;;;9.70;4.30;;;;;;;18.65;43.42;101259.40;218080;1282;138609;-87
2023/05/13 06:23:11;;;;;;;10.60;4.70;;;;;;;19.02;42.71;101255.60;217494;1282;138306;-90
2023/05/13 06:28:11;;;;;;;10.70;4.40;;;;;;;19.62;43.67;101258.69;217986;1282;137847;-87
2023/05/13 06:33:11;;;;;;;6.60;3.70;;;;;;;20.12;40.93;101262.25;217449;1282;138821;-90
2023/05/13 06:38:13;;;;;;;8.90;3.70;;;;;;;20.44;40.21;101265.13;217952;1282;137847;-85
2023/05/13 06:43:13;;;;;;;10.70;4.30;;;;;;;20.69;38.63;101268.55;217536;1282;138258;-87
2023/05/13 06:48:14;;;;;;;8.60;3.80;;;;;;;20.82;37.39;101264.80;217988;1282;138114;-86
2023/05/13 06:53:15;;;;;;;6.10;3.10;;;;;;;21.05;37.09;101261.63;217520;1286;138330;-89
2023/05/13 06:58:15;;;;;;;7.50;2.90;;;;;;;21.25;37.38;101259.46;218046;1286;137908;-89
2023/05/13 07:03:16;;;;;;;7.00;3.20;;;;;;;21.45;35.06;101261.97;217497;1282;139177;-88
2023/05/13 07:08:17;;;;;;;6.60;2.90;;;;;;;21.21;35.26;101256.92;218057;1282;137821;-89
2023/05/13 07:13:18;;;;;;;6.40;3.00;;;;;;;21.28;35.37;101253.83;217512;1282;138328;-88
2023/05/13 07:18:18;;;;;;;9.10;2.70;;;;;;;21.10;34.96;101253.61;218017;1282;138131;-88
2023/05/13 07:23:19;;;;;;;8.10;3.10;;;;;;;21.10;34.33;101254.58;217649;1282;138579;-89
2023/05/13 07:28:19;;;;;;;6.30;3.00;;;;;;;20.84;33.95;101257.98;218005;1283;138265;-87
2023/05/13 07:33:20;;;;;;;7.70;2.40;;;;;;;20.80;34.39;101255.74;217422;1282;138681;-89
2023/05/13 07:38:20;;;;;;;10.20;3.30;;;;;;;20.82;34.53;101255.55;217993;1282;139099;-89
2023/05/13 07:43:22;;;;;;;10.40;3.50;;;;;;;20.88;34.48;101250.24;217518;1282;138383;-88
2023/05/13 07:48:24;;;;;;;8.40;2.90;;;;;;;20.73;33.26;101255.45;218070;1282;139003;-85
2023/05/13 07:53:25;;;;;;;7.70;2.70;;;;;;;20.68;33.40;101252.42;217579;1282;139008;-88
2023/05/13 07:58:26;;;;;;;9.20;3.00;;;;;;;20.75;33.02;101248.38;217892;1282;138148;-84
2023/05/13 08:03:26;;;;;;;7.70;2.60;;;;;;;20.74;32.55;101240.73;217653;1283;138774;-88
2023/05/13 08:08:36;;;;;;;18.40;3.20;;;;;;;21.04;32.95;101237.88;218067;1282;137972;-85
2023/05/13 08:13:37;;;;;;;11.60;3.30;;;;;;;21.40;31.94;101240.21;217304;1282;138868;-85
2023/05/13 08:18:37;;;;;;;7.90;2.70;;;;;;;21.91;31.36;101239.63;217797;1287;139680;-84
2023/05/13 08:23:38;;;;;;;9.50;2.70;;;;;;;22.44;30.33;101245.52;217647;1283;137726;-87
2023/05/13 08:28:38;;;;;;;9.50;3.90;;;;;;;22.86;30.41;101236.11;218052;1283;137521;-83
2023/05/13 08:33:44;;;;;;;8.60;2.90;;;;;;;23.43;30.57;101229.50;217402;1283;138680;-86
2023/05/13 08:38:45;;;;;;;9.30;2.90;;;;;;;24.09;30.06;101233.14;218035;1282;138000;-87
2023/05/13 08:43:46;;;;;;;6.80;2.70;;;;;;;24.47;28.54;101233.90;217567;1282;138594;-86
2023/05/13 08:48:47;;;;;;;10.50;2.90;;;;;;;24.60;27.44;101233.70;218030;1283;137855;-85
2023/05/13 08:53:50;;;;;;;7.30;3.10;;;;;;;25.01;26.83;101231.56;217530;1282;138039;-87
2023/05/13 08:58:51;;;;;;;10.90;2.90;;;;;;;25.47;26.92;101228.95;218129;1286;108421;-87
2023/05/13 09:04:01;;;;;;;12.10;3.20;;;;;;;25.75;25.98;101229.73;217370;1282;138927;-85
2023/05/13 09:09:02;;;;;;;7.50;3.00;;;;;;;25.76;25.70;101229.35;217548;1283;138363;-86
2023/05/13 09:14:04;;;;;;;5.20;2.40;;;;;;;26.07;25.78;101222.91;218112;1282;138033;-88
2023/05/13 09:19:06;;;;;;;7.20;2.50;;;;;;;26.69;25.66;101220.89;217346;1282;138190;-90
2023/05/13 09:24:12;;;;;;;9.40;2.60;;;;;;;26.61;23.99;101224.70;217846;1282;137918;-89
2023/05/13 09:29:29;;;;;;;7.00;2.90;;;;;;;26.27;24.69;101224.54;217359;1287;138043;-85
2023/05/13 09:34:33;;;;;;;8.00;2.50;;;;;;;26.84;24.96;101218.10;217715;1285;137454;-90
2023/05/13 09:39:40;;;;;;;6.60;2.40;;;;;;;27.10;24.41;101215.89;217451;1286;138664;-91
2023/05/13 09:44:42;;;;;;;7.80;2.70;;;;;;;27.17;23.67;101208.65;217773;1288;138642;-85
2023/05/13 09:49:44;;;;;;;10.20;3.10;;;;;;;27.28;23.82;101208.90;217393;1284;138565;-88
2023/05/13 09:54:44;;;;;;;10.30;2.60;;;;;;;27.74;23.58;101207.31;217872;1284;138066;-87
2023/05/13 09:59:44;;;;;;;7.40;2.50;;;;;;;27.71;22.71;101202.83;217350;1286;138725;-84
2023/05/13 10:04:46;;;;;;;6.10;2.40;;;;;;;27.53;22.55;101201.89;218020;1285;96575;-84
2023/05/13 10:09:46;;;;;;;8.20;3.10;;;;;;;27.42;23.21;101198.30;217315;1285;138359;-84
2023/05/13 10:14:54;;;;;;;10.20;2.50;;;;;;;27.57;23.34;101188.24;218024;1285;138290;-85
2023/05/13 10:19:56;;;;;;;7.40;2.70;;;;;;;27.88;23.31;101190.00;217168;1285;139373;-86
2023/05/13 10:25:02;;;;;;;6.00;2.40;;;;;;;28.06;22.89;101187.41;217972;1283;137965;-85
2023/05/13 10:30:08;;;;;;;5.60;2.40;;;;;;;27.79;22.19;101187.65;217450;1287;139460;-88
2023/05/13 10:35:13;;;;;;;6.60;2.50;;;;;;;27.45;22.55;101190.86;218049;1282;96511;-92
2023/05/13 10:40:19;;;;;;;;;;;;;;;26.77;22.44;101185.87;217420;1287;137711;-87
2023/05/13 10:45:25;;;;;;;9.00;2.60;;;;;;;25.65;22.82;101191.30;217990;1283;124288;-88
2023/05/13 10:50:26;;;;;;;4.10;2.10;;;;;;;25.21;23.82;101192.77;217475;1282;139342;-88
2023/05/13 10:55:27;;;;;;;6.70;2.30;;;;;;;25.27;23.87;101186.60;218021;1283;137886;-89
2023/05/13 11:00:30;;;;;;;5.70;2.50;;;;;;;25.75;24.65;101178.67;217469;1283;138744;-87
2023/05/13 11:05:31;;;;;;;7.50;2.40;;;;;;;26.34;24.48;101177.48;218121;1283;96574;-95
2023/05/13 11:10:31;;;;;;;6.80;2.30;;;;;;;26.11;23.82;101182.66;217526;1283;137972;-91
2023/05/13 11:15:47;;;;;;;6.70;2.70;;;;;;;25.78;23.98;101175.21;217873;1283;138425;-88
2023/05/13 11:20:52;;;;;;;6.90;2.50;;;;;;;25.27;23.71;101177.94;217417;1285;139300;-91
2023/05/13 11:26:11;;;;;;;7.80;2.40;;;;;;;24.90;23.76;101177.64;217969;1288;137972;-92
2023/05/13 11:31:16;;;;;;;5.70;2.30;;;;;;;24.86;23.72;101181.58;217492;1283;138293;-90
2023/05/13 11:36:19;;;;;;;7.70;2.30;;;;;;;25.07;24.28;101175.41;218118;1286;137842;-90
2023/05/13 11:41:20;;;;;;;7.90;3.00;;;;;;;25.77;24.43;101166.64;217529;1282;139594;-86
2023/05/13 11:46:23;;;;;;;9.50;2.90;;;;;;;26.32;23.54;101167.44;217907;1287;138441;-87
2023/05/13 11:51:26;;;;;;;9.00;2.80;;;;;;;26.59;22.72;101169.17;217411;1287;139082;-86
2023/05/13 11:56:30;;;;;;;6.10;2.70;;;;;;;26.79;22.88;101159.47;217845;1282;138085;-89
2023/05/13 12:01:30;;;;;;;9.30;2.90;;;;;;;27.01;22.57;101159.94;217396;1288;138731;-92
2023/05/13 12:06:30;;;;;;;7.80;2.50;;;;;;;27.24;22.44;101164.02;217919;1282;138963;-94
2023/05/13 12:11:31;;;;;;;8.90;2.40;;;;;;;27.46;21.99;101168.23;217468;1287;139449;-89
2023/05/13 12:16:32;;;;;;;4.80;2.50;;;;;;;27.48;22.29;101173.52;217929;1283;137517;-93
2023/05/13 12:21:33;;;;;;;7.40;2.60;;;;;;;27.23;22.49;101169.67;217576;1283;138737;-92
2023/05/13 12:26:34;;;;;;;23.70;6.70;;;;;;;27.33;23.10;101161.23;217809;1282;137832;-93
2023/05/13 12:31:34;;;;;;;7.30;2.50;;;;;;;27.54;22.84;101155.23;217634;1282;138726;-91
2023/05/13 12:36:38;;;;;;;5.80;2.80;;;;;;;27.01;22.75;101161.48;218190;1283;138289;-91
2023/05/13 12:41:41;;;;;;;7.20;2.70;;;;;;;26.77;22.98;101168.09;217439;1282;138979;-92
2023/05/13 12:46:52;;;;;;;18.20;7.10;;;;;;;26.32;22.70;101169.64;217932;1283;137761;-89
2023/05/13 12:51:54;;;;;;;10.00;3.10;;;;;;;25.71;23.16;101167.50;217559;1282;138440;-91
2023/05/13 12:56:55;;;;;;;9.00;2.90;;;;;;;25.47;24.43;101172.91;217940;1283;138552;-91
2023/05/13 13:01:56;;;;;;;6.20;2.80;;;;;;;25.26;23.82;101169.73;217547;1282;138328;-90
2023/05/13 13:06:56;;;;;;;7.60;3.50;;;;;;;24.74;24.15;101169.39;218139;1282;138395;-88
2023/05/13 13:11:57;;;;;;;5.50;2.40;;;;;;;24.56;25.02;101168.71;217609;1288;137955;-91
2023/05/13 13:16:57;;;;;;;9.10;2.70;;;;;;;24.54;25.26;101168.16;218234;1287;106835;-91
2023/05/13 13:21:58;;;;;;;4.50;2.50;;;;;;;24.29;24.79;101169.01;217591;1287;139387;-88
2023/05/13 13:26:58;;;;;;;6.90;2.70;;;;;;;24.13;25.03;101159.48;218112;1282;137860;-89
2023/05/13 13:31:59;;;;;;;9.60;2.60;;;;;;;24.03;25.47;101154.27;217356;1283;137887;-88
2023/05/13 13:36:59;;;;;;;10.40;2.90;;;;;;;24.16;24.95;101149.95;218142;1283;137814;-94
2023/05/13 13:42:03;;;;;;;6.10;2.80;;;;;;;24.06;24.31;101150.38;217667;1283;139096;-95
2023/05/13 13:47:04;;;;;;;8.80;2.80;;;;;;;23.85;25.29;101157.17;217944;1287;107814;-94
2023/05/13 13:52:04;;;;;;;8.10;4.40;;;;;;;23.60;25.19;101151.83;217359;1283;137986;-93
2023/05/13 13:57:05;;;;;;;8.00;3.00;;;;;;;23.21;25.12;101145.55;217921;1283;137943;-94
2023/05/13 14:02:05;;;;;;;5.30;2.80;;;;;;;23.22;25.47;101139.41;217671;1283;139217;-86
2023/05/13 14:07:06;;;;;;;5.80;2.60;;;;;;;23.14;25.58;101136.42;217890;1283;137844;-88
2023/05/13 14:12:07;;;;;;;6.40;2.90;;;;;;;23.06;26.02;101139.15;217636;1283;138485;-90
2023/05/13 14:17:07;;;;;;;5.10;2.70;;;;;;;22.97;25.74;101133.14;218196;1283;96583;-93
2023/05/13 14:22:08;;;;;;;7.50;3.00;;;;;;;22.85;25.87;101125.33;217551;1287;138448;-89
2023/05/13 14:27:08;;;;;;;7.80;3.00;;;;;;;23.00;25.99;101125.60;217910;1287;138728;-93
2023/05/13 14:32:09;;;;;;;5.10;2.80;;;;;;;23.13;26.23;101120.31;217508;1284;138647;-90
2023/05/13 14:37:09;;;;;;;7.70;3.00;;;;;;;23.30;26.06;101117.11;217885;1283;138184;-89
2023/05/13 14:42:10;;;;;;;6.20;2.80;;;;;;;23.42;25.68;101115.05;217361;1283;206213;-91
2023/05/13 14:47:10;;;;;;;11.20;3.10;;;;;;;23.42;25.85;101111.03;218116;1283;97899;-89
2023/05/13 14:52:11;;;;;;;8.00;2.80;;;;;;;23.34;25.76;101115.29;217498;1287;138296;-84
2023/05/13 14:57:11;;;;;;;80.70;73.20;;;;;;;23.22;25.36;101110.52;218118;1283;138042;-85
2023/05/13 15:02:12;;;;;;;154.60;140.50;;;;;;;23.14;25.87;101109.05;217500;1288;138725;-89
2023/05/13 15:07:13;;;;;;;14.60;9.40;;;;;;;23.17;26.16;101103.77;217920;1287;138750;-85
2023/05/13 15:12:13;;;;;;;11.10;4.30;;;;;;;23.16;25.89;101107.98;217614;1283;139168;-88
2023/05/13 15:17:14;;;;;;;8.90;3.30;;;;;;;23.13;25.95;101098.82;218160;1283;97870;-88
2023/05/13 15:22:15;;;;;;;67.20;40.00;;;;;;;23.11;26.00;101096.33;217547;1285;139105;-88
2023/05/13 15:27:18;;;;;;;14.00;5.90;;;;;;;23.17;25.71;101097.19;217964;1287;138752;-85
2023/05/13 15:32:18;;;;;;;68.00;59.80;;;;;;;23.19;25.67;101100.59;217317;1283;138964;-87
2023/05/13 15:37:19;;;;;;;18.40;12.50;;;;;;;23.16;25.50;101096.90;218032;1286;139647;-84
2023/05/13 15:42:20;;;;;;;25.00;16.00;;;;;;;23.01;25.63;101099.02;217548;1283;139351;-90
2023/05/13 15:47:20;;;;;;;15.80;10.10;;;;;;;22.89;25.84;101093.68;218116;1286;98340;-91
2023/05/13 15:52:21;;;;;;;28.70;17.40;;;;;;;22.78;26.49;101087.50;217579;1283;139867;-86
2023/05/13 15:57:21;;;;;;;24.00;18.50;;;;;;;22.75;26.32;101084.79;218043;1283;139006;-91
2023/05/13 16:02:21;;;;;;;14.20;7.70;;;;;;;22.67;26.52;101079.45;217498;1283;139540;-88
2023/05/13 16:07:23;;;;;;;8.60;4.10;;;;;;;22.56;26.39;101067.35;218098;1284;138383;-93
2023/05/13 16:12:23;;;;;;;12.80;5.50;;;;;;;22.47;26.52;101061.42;217451;1286;138191;-85
2023/05/13 16:17:23;;;;;;;7.30;3.40;;;;;;;22.35;26.31;101054.77;217945;1284;98608;-87
2023/05/13 16:22:29;;;;;;;9.70;3.50;;;;;;;22.20;26.49;101059.41;217521;1283;138629;-89
2023/05/13 16:27:30;;;;;;;245.10;161.50;;;;;;;21.97;26.55;101058.35;217982;1282;138006;-87
2023/05/13 16:32:31;;;;;;;20.40;12.90;;;;;;;21.81;26.68;101059.55;217576;1286;139651;-88
2023/05/13 16:37:34;;;;;;;9.50;4.20;;;;;;;21.65;26.90;101057.66;217972;1286;137508;-83
2023/05/13 16:42:34;;;;;;;10.20;3.20;;;;;;;21.49;27.21;101058.60;217556;1282;138823;-86
2023/05/13 16:47:35;;;;;;;7.50;3.80;;;;;;;21.39;27.41;101061.16;218189;1283;97966;-86
2023/05/13 16:52:35;;;;;;;7.00;3.60;;;;;;;21.25;27.61;101055.02;217497;1282;137684;-87
2023/05/13 16:57:35;;;;;;;6.00;2.80;;;;;;;21.10;27.56;101052.96;218087;1282;139586;-87
2023/05/13 17:02:36;;;;;;;7.60;3.00;;;;;;;20.94;27.79;101051.54;217600;1282;138365;-90
2023/05/13 17:07:36;;;;;;;6.80;3.00;;;;;;;20.80;27.99;101048.44;218076;1283;138079;-87
2023/05/13 17:12:37;;;;;;;6.80;3.40;;;;;;;20.65;28.09;101046.67;217215;1282;138306;-90
2023/05/13 17:17:37;;;;;;;6.10;2.70;;;;;;;20.54;28.55;101042.18;217947;1282;97919;-85
2023/05/13 17:22:37;;;;;;;7.60;3.30;;;;;;;20.44;28.79;101043.66;217520;1286;137732;-83
2023/05/13 17:27:38;;;;;;;10.20;3.40;;;;;;;20.33;28.89;101043.95;218004;1282;138993;-85
2023/05/13 17:32:38;;;;;;;8.50;3.40;;;;;;;20.21;29.48;101043.78;217300;1282;138413;-84
2023/05/13 17:37:38;;;;;;;8.80;3.40;;;;;;;20.09;29.45;101049.50;217945;1283;138154;-82
2023/05/13 17:42:39;;;;;;;10.10;3.10;;;;;;;19.95;29.86;101053.64;217586;1282;138207;-84
2023/05/13 17:47:39;;;;;;;8.00;2.90;;;;;;;19.82;29.84;101055.38;218185;1283;97912;-87
2023/05/13 17:52:40;;;;;;;6.50;3.20;;;;;;;19.66;30.16;101054.20;217524;1283;139409;-87
2023/05/13 17:57:40;;;;;;;7.80;3.10;;;;;;;19.51;30.95;101058.12;218059;1283;137943;-86
2023/05/13 18:02:41;;;;;;;7.30;3.20;;;;;;;19.37;31.08;101060.09;217552;1282;138528;-87
2023/05/13 18:07:41;;;;;;;7.90;3.50;;;;;;;19.16;32.50;101066.98;217938;1283;139357;-85
2023/05/13 18:12:42;;;;;;;9.20;3.20;;;;;;;18.95;33.29;101065.27;217502;1283;138420;-86
2023/05/13 18:17:42;;;;;;;9.90;4.50;;;;;;;18.73;34.37;101065.77;217851;1286;138024;-86
2023/05/13 18:22:43;;;;;;;13.80;5.10;;;;;;;18.51;35.36;101065.80;217647;1286;137879;-85
2023/05/13 18:27:44;;;;;;;9.10;4.00;;;;;;;18.27;36.21;101064.05;218012;1282;138487;-84
2023/05/13 18:32:45;;;;;;;11.50;4.20;;;;;;;18.03;37.15;101061.80;217420;1283;138423;-88
2023/05/13 18:37:45;;;;;;;7.70;3.70;;;;;;;17.81;37.60;101064.55;218039;1282;138179;-87
2023/05/13 18:42:46;;;;;;;8.30;3.60;;;;;;;17.56;38.03;101072.69;217517;1282;138185;-86
2023/05/13 18:47:47;;;;;;;9.40;3.90;;;;;;;17.31;38.61;101081.25;217836;1285;139089;-86
2023/05/13 18:52:47;;;;;;;11.00;4.10;;;;;;;17.04;39.17;101083.23;217426;1283;137675;-87
2023/05/13 18:57:48;;;;;;;10.10;3.70;;;;;;;16.77;40.08;101081.52;218103;1282;138624;-86
2023/05/13 19:02:50;;;;;;;8.50;3.80;;;;;;;16.53;40.99;101086.44;217526;1282;139183;-88
2023/05/13 19:07:51;;;;;;;11.40;4.70;;;;;;;16.35;41.69;101086.30;217891;1282;138801;-84
2023/05/13 19:12:51;;;;;;;10.70;4.30;;;;;;;16.23;41.10;101089.55;217439;1283;138804;-84
2023/05/13 19:17:52;;;;;;;9.70;4.90;;;;;;;15.96;42.60;101094.34;218018;1282;138324;-86
2023/05/13 19:22:52;;;;;;;11.20;4.70;;;;;;;15.69;43.34;101096.71;217640;1282;137972;-85
2023/05/13 19:27:53;;;;;;;12.30;5.50;;;;;;;15.44;43.70;101099.27;217948;1282;138162;-84
2023/05/13 19:32:54;;;;;;;13.80;6.30;;;;;;;15.14;44.32;101105.75;217537;1282;140182;-86
2023/05/13 19:37:55;;;;;;;12.40;6.10;;;;;;;14.93;45.30;101111.84;217982;1282;138173;-85
2023/05/13 19:42:55;;;;;;;15.60;6.80;;;;;;;14.78;45.81;101117.88;217483;1282;138378;-85
2023/05/13 19:47:56;;;;;;;15.00;6.00;;;;;;;14.65;46.55;101122.73;218018;1282;138169;-86
2023/05/13 19:52:56;;;;;;;14.70;6.20;;;;;;;14.37;47.34;101121.75;217681;1283;139358;-89
2023/05/13 19:57:57;;;;;;;12.00;6.50;;;;;;;14.14;48.09;101125.84;217859;1282;138524;-89
2023/05/13 20:02:58;;;;;;;13.60;6.60;;;;;;;14.00;48.72;101125.70;217454;1286;138405;-88
2023/05/13 20:07:58;;;;;;;14.50;7.00;;;;;;;13.81;49.37;101119.46;218078;1286;138171;-86
2023/05/13 20:13:00;;;;;;;12.60;6.60;;;;;;;13.68;49.66;101112.46;217464;1286;138528;-86
2023/05/13 20:18:01;;;;;;;15.30;7.10;;;;;;;13.50;50.48;101111.65;217846;1282;138206;-87
2023/05/13 20:23:01;;;;;;;19.00;7.80;;;;;;;13.32;51.08;101114.86;217613;1282;137875;-88
2023/05/13 20:28:02;;;;;;;12.90;6.50;;;;;;;13.18;51.98;101112.58;218017;1282;138224;-85
2023/05/13 20:33:02;;;;;;;13.30;7.10;;;;;;;13.02;52.35;101115.63;217507;1282;138654;-87
2023/05/13 20:38:03;;;;;;;13.80;7.00;;;;;;;12.87;52.82;101116.35;218019;1286;138348;-87
2023/05/13 20:43:03;;;;;;;14.60;6.40;;;;;;;12.71;53.92;101119.30;217313;1282;138537;-88
2023/05/13 20:48:05;;;;;;;13.40;7.40;;;;;;;12.57;54.55;101119.65;217790;1286;138228;-88
2023/05/13 20:53:07;;;;;;;15.10;6.50;;;;;;;12.43;55.33;101115.98;217598;1282;137720;-87
2023/05/13 20:58:07;;;;;;;12.90;6.40;;;;;;;12.30;55.92;101124.23;217988;1282;138030;-88
2023/05/13 21:03:08;;;;;;;14.00;6.80;;;;;;;12.17;56.53;101120.80;217214;1282;138619;-90
2023/05/13 21:08:08;;;;;;;14.60;6.40;;;;;;;12.07;57.14;101125.98;218001;1283;138329;-87
2023/05/13 21:13:09;;;;;;;12.30;6.30;;;;;;;11.97;57.58;101124.80;217515;1282;138720;-88
2023/05/13 21:18:10;;;;;;;12.80;7.00;;;;;;;11.88;58.29;101126.46;218051;1283;138718;-87
2023/05/13 21:23:10;;;;;;;14.20;7.80;;;;;;;11.83;58.54;101132.13;217340;1282;138953;-87
2023/05/13 21:28:10;;;;;;;13.00;6.40;;;;;;;11.77;58.53;101125.33;217959;1282;138031;-87
2023/05/13 21:33:11;;;;;;;16.50;7.10;;;;;;;11.75;57.02;101122.79;217515;1283;138483;-88
2023/05/13 21:38:11;;;;;;;14.90;6.70;;;;;;;11.75;56.28;101122.86;218021;1286;138331;-88
2023/05/13 21:43:12;;;;;;;12.70;6.40;;;;;;;11.74;56.96;101122.59;217521;1283;138213;-88
2023/05/13 21:48:13;;;;;;;13.50;6.30;;;;;;;11.71;57.57;101124.20;217978;1283;137279;-88
2023/05/13 21:53:13;;;;;;;11.40;6.60;;;;;;;11.67;57.91;101123.34;217665;1282;138687;-87
2023/05/13 21:58:13;;;;;;;13.30;7.10;;;;;;;11.61;58.59;101121.27;217818;1282;139153;-87
2023/05/13 22:03:14;;;;;;;11.50;6.30;;;;;;;11.55;58.94;101121.52;217434;1282;139186;-87
2023/05/13 22:08:14;;;;;;;11.60;7.20;;;;;;;11.48;59.11;101120.92;217936;1283;139289;-87
2023/05/13 22:13:15;;;;;;;12.30;7.10;;;;;;;11.40;59.37;101119.89;217396;1282;138612;-88
2023/05/13 22:18:16;;;;;;;15.90;7.60;;;;;;;11.33;59.77;101119.29;218009;1282;138381;-88
2023/05/13 22:23:16;;;;;;;11.70;6.60;;;;;;;11.23;60.60;101119.27;217632;1282;139408;-88
2023/05/13 22:28:16;;;;;;;13.00;7.60;;;;;;;11.13;61.09;101113.14;217956;1282;138563;-89
2023/05/13 22:33:17;;;;;;;13.40;6.90;;;;;;;11.03;61.57;101116.67;217220;1286;139023;-89
2023/05/13 22:38:18;;;;;;;15.30;7.60;;;;;;;10.94;61.95;101117.34;217861;1283;138991;-89